createdAt,value
2023-02-11T00:01:48.979Z,100639.88
2023-02-11T00:04:16.444Z,100635.09
2023-02-11T00:06:42.972Z,100641.34
2023-02-11T00:09:10.822Z,100631.19
2023-02-11T00:11:37.385Z,100636.28
2023-02-11T00:14:07.726Z,100630.53
2023-02-11T00:16:34.537Z,100613.19
2023-02-11T00:19:03.110Z,100616.97
2023-02-11T00:21:29.773Z,100615.16
2023-02-11T00:23:59.643Z,100617.38
2023-02-11T00:26:29.157Z,100622.44
2023-02-11T00:28:57.082Z,100631.16
2023-02-11T00:31:24.340Z,100629.22
2023-02-11T00:33:51.193Z,100631.09
2023-02-11T00:36:23.882Z,100616.91
2023-02-11T00:38:51.787Z,100612.31
2023-02-11T00:41:20.494Z,100610.47
2023-02-11T00:43:47.697Z,100609.97
2023-02-11T00:46:15.130Z,100611.97
2023-02-11T00:48:42.086Z,100603.09
2023-02-11T00:51:09.006Z,100604.25
2023-02-11T00:53:35.892Z,100597.91
2023-02-11T00:56:02.418Z,100592.25
2023-02-11T00:58:29.202Z,100594.06
2023-02-11T01:00:56.306Z,100595.38
2023-02-11T01:03:23.038Z,100579.56
2023-02-11T01:05:49.886Z,100583.25
2023-02-11T01:08:16.598Z,100573.94
2023-02-11T01:10:43.989Z,100569.84
2023-02-11T01:13:11.040Z,100575.22
2023-02-11T01:15:37.871Z,100579.03
2023-02-11T01:18:05.839Z,100573.50
2023-02-11T01:20:32.672Z,100572.19
2023-02-11T01:22:59.230Z,100557.69
2023-02-11T01:25:25.716Z,100550.69
2023-02-11T01:27:52.222Z,100553.59
2023-02-11T01:30:18.697Z,100551.84
2023-02-11T01:32:45.145Z,100549.56
2023-02-11T01:35:11.686Z,100551.84
2023-02-11T01:37:38.488Z,100564.69
2023-02-11T01:40:12.086Z,100565.38
2023-02-11T01:42:38.614Z,100550.44
2023-02-11T01:45:39.005Z,100560.69
2023-02-11T01:48:05.698Z,100559.84
2023-02-11T01:50:32.443Z,100566.31
2023-02-11T01:53:18.983Z,100562.50
2023-02-11T01:56:04.343Z,100563.19
2023-02-11T01:58:34.801Z,100559.72
2023-02-11T02:01:04.578Z,100550.84
2023-02-11T02:03:33.361Z,100543.75
2023-02-11T02:06:03.862Z,100544.00
2023-02-11T02:09:05.573Z,100534.19
2023-02-11T02:11:32.199Z,100532.13
2023-02-11T02:13:59.195Z,100534.88
2023-02-11T02:16:33.063Z,100519.06
2023-02-11T02:19:11.669Z,100516.19
2023-02-11T02:22:16.048Z,100518.72
2023-02-11T02:24:48.325Z,100516.69
2023-02-11T02:27:20.603Z,100519.06
2023-02-11T02:29:49.795Z,100516.06
2023-02-11T02:32:32.344Z,100528.09
2023-02-11T02:35:20.263Z,100532.88
2023-02-11T02:38:05.053Z,100525.16
2023-02-11T02:40:36.812Z,100530.16
2023-02-11T02:43:04.782Z,100536.88
2023-02-11T02:45:31.311Z,100538.81
2023-02-11T02:47:57.855Z,100541.47
2023-02-11T02:50:30.694Z,100540.66
2023-02-11T02:53:27.694Z,100543.09
2023-02-11T02:56:06.585Z,100541.63
2023-02-11T02:58:51.303Z,100545.84
2023-02-11T03:01:40.069Z,100551.63
2023-02-11T03:04:21.166Z,100543.22
2023-02-11T03:07:07.024Z,100540.22
2023-02-11T03:09:47.924Z,100536.88
2023-02-11T03:12:15.614Z,100528.59
2023-02-11T03:14:42.247Z,100535.63
2023-02-11T03:17:10.375Z,100534.09
2023-02-11T03:19:43.637Z,100532.28
2023-02-11T03:22:29.426Z,100522.13
2023-02-11T03:24:56.825Z,100528.66
2023-02-11T03:27:37.695Z,100524.63
2023-02-11T03:30:33.157Z,100527.94
2023-02-11T03:33:23.260Z,100521.25
2023-02-11T03:36:19.673Z,100497.25
2023-02-11T03:38:50.975Z,100511.66
2023-02-11T03:41:21.656Z,100510.44
2023-02-11T03:43:51.693Z,100515.19
2023-02-11T03:46:22.512Z,100512.75
2023-02-11T03:48:56.123Z,100512.56
2023-02-11T03:51:23.509Z,100510.63
2023-02-11T03:53:54.966Z,100508.84
2023-02-11T03:56:25.714Z,100501.41
2023-02-11T03:58:52.521Z,100499.22
2023-02-11T04:01:19.130Z,100499.69
2023-02-11T04:03:45.601Z,100500.66
2023-02-11T04:06:12.180Z,100491.09
2023-02-11T04:08:38.762Z,100490.09
2023-02-11T04:11:05.265Z,100499.25
2023-02-11T04:13:31.843Z,100497.31
2023-02-11T04:15:58.338Z,100494.66
2023-02-11T04:18:24.975Z,100487.34
2023-02-11T04:20:51.594Z,100494.06
2023-02-11T04:23:18.076Z,100489.97
2023-02-11T04:25:44.547Z,100497.78
2023-02-11T04:28:11.107Z,100505.47
2023-02-11T04:30:37.629Z,100500.53
2023-02-11T04:33:04.189Z,100502.81
2023-02-11T04:35:30.716Z,100514.13
2023-02-11T04:37:57.516Z,100504.88
2023-02-11T04:40:24.030Z,100501.63
2023-02-11T04:42:50.624Z,100504.88
2023-02-11T04:45:17.099Z,100492.75
2023-02-11T04:47:43.649Z,100504.03
2023-02-11T04:50:10.255Z,100496.22
2023-02-11T04:52:36.793Z,100504.97
2023-02-11T04:55:04.110Z,100491.53
2023-02-11T04:57:30.654Z,100497.06
2023-02-11T04:59:57.127Z,100493.25
2023-02-11T05:02:23.630Z,100498.72
2023-02-11T05:04:50.130Z,100498.72
2023-02-11T05:07:16.566Z,100503.75
2023-02-11T05:09:43.098Z,100509.78
2023-02-11T05:12:10.155Z,100504.28
2023-02-11T05:14:36.630Z,100498.28
2023-02-11T05:17:03.222Z,100507.16
2023-02-11T05:19:31.295Z,100493.19
2023-02-11T05:22:03.047Z,100491.28
2023-02-11T05:24:33.492Z,100494.75
2023-02-11T05:27:00.522Z,100492.25
2023-02-11T05:29:27.635Z,100497.88
2023-02-11T05:31:54.113Z,100505.47
2023-02-11T05:34:20.678Z,100511.34
2023-02-11T05:36:47.165Z,100516.75
2023-02-11T05:39:13.656Z,100515.31
2023-02-11T05:41:40.184Z,100524.91
2023-02-11T05:44:06.691Z,100517.72
2023-02-11T05:46:33.270Z,100526.69
2023-02-11T05:48:59.745Z,100533.31
2023-02-11T05:51:26.277Z,100534.97
2023-02-11T05:53:53.226Z,100539.31
2023-02-11T05:56:19.772Z,100541.72
2023-02-11T05:58:46.288Z,100548.69
2023-02-11T06:01:12.773Z,100544.59
2023-02-11T06:03:39.384Z,100534.88
2023-02-11T06:06:10.488Z,100535.72
2023-02-11T06:08:39.186Z,100535.84
2023-02-11T06:11:05.917Z,100535.47
2023-02-11T06:13:32.381Z,100544.59
2023-02-11T06:16:00.539Z,100546.53
2023-02-11T06:18:27.230Z,100532.56
2023-02-11T06:20:53.929Z,100542.53
2023-02-11T06:23:20.634Z,100543.81
2023-02-11T06:25:47.158Z,100534.72
2023-02-11T06:28:13.748Z,100522.34
2023-02-11T06:30:40.655Z,100525.47
2023-02-11T06:33:07.228Z,100507.13
2023-02-11T06:35:35.333Z,100509.28
2023-02-11T06:38:01.922Z,100510.00
2023-02-11T06:40:28.435Z,100520.94
2023-02-11T06:42:54.981Z,100526.19
2023-02-11T06:45:21.491Z,100518.75
2023-02-11T06:47:47.958Z,100523.72
2023-02-11T06:50:15.091Z,100529.34
2023-02-11T06:52:41.685Z,100521.91
2023-02-11T06:55:08.594Z,100541.72
2023-02-11T06:57:35.165Z,100544.94
2023-02-11T07:00:01.706Z,100542.69
2023-02-11T07:02:28.253Z,100544.13
2023-02-11T07:04:54.745Z,100546.53
2023-02-11T07:07:21.262Z,100551.81
2023-02-11T07:09:47.816Z,100550.09
2023-02-11T07:12:14.363Z,100549.38
2023-02-11T07:14:40.895Z,100547.22
2023-02-11T07:17:07.379Z,100549.38
2023-02-11T07:19:33.816Z,100540.97
2023-02-11T07:22:00.310Z,100547.72
2023-02-11T07:24:26.920Z,100537.38
2023-02-11T07:26:54.078Z,100525.63
2023-02-11T07:29:20.557Z,100523.22
2023-02-11T07:31:47.171Z,100531.25
2023-02-11T07:34:13.802Z,100528.00
2023-02-11T07:36:40.444Z,100523.41
2023-02-11T07:39:06.979Z,100520.56
2023-02-11T07:41:37.692Z,100518.13
2023-02-11T07:44:04.822Z,100514.66
2023-02-11T07:46:31.396Z,100522.19
2023-02-11T07:48:58.295Z,100511.53
2023-02-11T07:51:27.865Z,100519.50
2023-02-11T07:53:55.801Z,100522.50
2023-02-11T07:56:23.334Z,100528.81
2023-02-11T07:58:50.470Z,100519.16
2023-02-11T08:01:25.303Z,100511.16
2023-02-11T08:03:52.191Z,100509.78
2023-02-11T08:06:20.427Z,100507.34
2023-02-11T08:08:47.407Z,100516.53
2023-02-11T08:11:19.320Z,100511.56
2023-02-11T08:13:46.481Z,100499.97
2023-02-11T08:16:27.314Z,100488.81
2023-02-11T08:18:57.398Z,100497.59
2023-02-11T08:21:24.658Z,100497.34
2023-02-11T08:23:51.951Z,100503.88
2023-02-11T08:26:21.592Z,100490.44
2023-02-11T08:28:49.498Z,100487.63
2023-02-11T08:31:18.966Z,100493.63
2023-02-11T08:33:46.040Z,100508.38
2023-02-11T08:36:17.084Z,100510.38
2023-02-11T08:38:44.163Z,100502.06
2023-02-11T08:41:11.436Z,100503.31
2023-02-11T08:43:41.697Z,100503.13
2023-02-11T08:46:09.240Z,100496.28
2023-02-11T08:48:35.980Z,100498.31
2023-02-11T08:51:10.111Z,100512.50
2023-02-11T08:53:37.286Z,100497.97
2023-02-11T08:56:03.950Z,100495.13
2023-02-11T08:58:30.525Z,100502.25
2023-02-11T09:00:57.024Z,100505.50
2023-02-11T09:03:23.636Z,100512.28
2023-02-11T09:05:53.131Z,100521.84
2023-02-11T09:08:20.738Z,100521.41
2023-02-11T09:10:47.424Z,100512.28
2023-02-11T09:13:14.508Z,100501.06
2023-02-11T09:15:44.588Z,100495.03
2023-02-11T09:18:11.086Z,100505.16
2023-02-11T09:20:37.554Z,100509.38
2023-02-11T09:23:04.493Z,100513.94
2023-02-11T09:25:30.974Z,100513.56
2023-02-11T09:27:57.501Z,100500.38
2023-02-11T09:30:24.051Z,100509.25
2023-02-11T09:32:50.580Z,100503.22
2023-02-11T09:35:17.049Z,100504.50
2023-02-11T09:37:43.535Z,100500.97
2023-02-11T09:40:10.675Z,100492.75
2023-02-11T09:43:09.170Z,100494.38
2023-02-11T09:45:35.879Z,100500.06
2023-02-11T09:48:11.155Z,100495.91
2023-02-11T09:50:50.434Z,100493.72
2023-02-11T09:53:29.632Z,100493.22
2023-02-11T09:55:59.997Z,100498.31
2023-02-11T09:58:29.742Z,100500.78
2023-02-11T10:01:14.609Z,100501.72
2023-02-11T10:03:56.273Z,100501.69
2023-02-11T10:06:31.650Z,100510.91
2023-02-11T10:09:42.716Z,100504.78
2023-02-11T10:12:32.398Z,100499.59
2023-02-11T10:14:58.830Z,100495.56
2023-02-11T10:17:47.028Z,100502.16
2023-02-11T10:20:29.526Z,100515.31
2023-02-11T10:23:01.028Z,100514.56
2023-02-11T10:25:34.852Z,100500.97
2023-02-11T10:28:10.125Z,100502.06
2023-02-11T10:30:53.094Z,100511.88
2023-02-11T10:33:32.588Z,100518.09
2023-02-11T10:35:59.550Z,100508.28
2023-02-11T10:38:27.822Z,100516.78
2023-02-11T10:40:54.384Z,100515.31
2023-02-11T10:43:25.801Z,100519.13
2023-02-11T10:45:54.015Z,100517.28
2023-02-11T10:48:51.519Z,100519.78
2023-02-11T10:51:21.022Z,100520.00
2023-02-11T10:54:14.393Z,100519.75
2023-02-11T10:56:45.826Z,100510.44
2023-02-11T10:59:21.133Z,100517.28
2023-02-11T11:02:00.693Z,100505.94
2023-02-11T11:04:30.450Z,100511.09
2023-02-11T11:07:09.445Z,100496.88
2023-02-11T11:09:59.660Z,100491.94
2023-02-11T11:12:48.431Z,100482.81
2023-02-11T11:15:23.812Z,100475.22
2023-02-11T11:18:20.993Z,100471.56
2023-02-11T11:21:01.193Z,100459.56
2023-02-11T11:23:29.935Z,100474.09
2023-02-11T11:26:40.242Z,100467.88
2023-02-11T11:29:16.235Z,100469.75
2023-02-11T11:32:05.819Z,100456.72
2023-02-11T11:34:41.840Z,100458.50
2023-02-11T11:37:22.926Z,100455.47
2023-02-11T11:40:07.766Z,100447.94
2023-02-11T11:42:39.204Z,100452.81
2023-02-11T11:45:20.815Z,100443.03
2023-02-11T11:48:02.340Z,100443.03
2023-02-11T11:50:38.088Z,100440.38
2023-02-11T11:53:12.326Z,100427.84
2023-02-11T11:55:45.229Z,100427.34
2023-02-11T11:58:17.248Z,100420.28
2023-02-11T12:00:52.218Z,100423.03
2023-02-11T12:03:37.348Z,100414.19
2023-02-11T12:06:21.102Z,100412.41
2023-02-11T12:09:25.341Z,100407.56
2023-02-11T12:12:16.020Z,100399.78
2023-02-11T12:15:19.983Z,100398.91
2023-02-11T12:18:04.637Z,100386.13
2023-02-11T12:20:43.473Z,100384.38
2023-02-11T12:23:44.225Z,100388.88
2023-02-11T12:26:21.676Z,100383.63
2023-02-11T12:29:12.916Z,100379.34
2023-02-11T12:32:00.653Z,100386.31
2023-02-11T12:34:35.920Z,100370.16
2023-02-11T12:37:47.537Z,100374.59
2023-02-11T12:40:38.212Z,100367.19
2023-02-11T12:43:18.397Z,100368.09
2023-02-11T12:46:26.135Z,100368.59
2023-02-11T12:49:11.728Z,100364.72
2023-02-11T12:51:56.841Z,100367.81
2023-02-11T12:54:56.324Z,100363.47
2023-02-11T12:57:27.054Z,100364.16
2023-02-11T13:00:13.907Z,100364.16
2023-02-11T13:02:55.698Z,100356.59
2023-02-11T13:05:40.614Z,100352.47
2023-02-11T13:08:19.515Z,100346.19
2023-02-11T13:10:54.970Z,100358.94
2023-02-11T13:13:26.611Z,100350.00
2023-02-11T13:16:10.494Z,100337.59
2023-02-11T13:18:49.630Z,100340.63
2023-02-11T13:21:16.545Z,100342.66
2023-02-11T13:23:49.174Z,100343.13
2023-02-11T13:26:24.786Z,100337.16
2023-02-11T13:29:00.093Z,100348.41
2023-02-11T13:31:28.581Z,100342.84
2023-02-11T13:33:55.623Z,100334.41
2023-02-11T13:36:24.756Z,100330.53
2023-02-11T13:39:03.833Z,100325.84
2023-02-11T13:41:38.456Z,100314.28
2023-02-11T13:44:10.689Z,100312.16
2023-02-11T13:46:55.610Z,100307.19
2023-02-11T13:49:47.792Z,100311.84
2023-02-11T13:52:27.820Z,100312.31
2023-02-11T13:54:57.677Z,100310.06
2023-02-11T13:57:32.331Z,100301.69
2023-02-11T14:00:34.020Z,100311.53
2023-02-11T14:03:31.170Z,100309.34
2023-02-11T14:06:44.645Z,100304.69
2023-02-11T14:09:13.909Z,100313.75
2023-02-11T14:11:40.813Z,100311.53
2023-02-11T14:14:27.242Z,100308.28
2023-02-11T14:16:59.761Z,100302.19
2023-02-11T14:19:40.877Z,100311.00
2023-02-11T14:22:10.427Z,100300.22
2023-02-11T14:24:36.884Z,100301.06
2023-02-11T14:27:09.929Z,100309.44
2023-02-11T14:29:58.430Z,100315.25
2023-02-11T14:32:43.484Z,100307.59
2023-02-11T14:35:43.849Z,100309.50
2023-02-11T14:38:29.518Z,100305.56
2023-02-11T14:41:06.571Z,100306.97
2023-02-11T14:43:40.926Z,100306.97
2023-02-11T14:46:09.108Z,100299.47
2023-02-11T14:48:39.189Z,100294.88
2023-02-11T14:51:21.035Z,100296.88
2023-02-11T14:53:50.984Z,100290.88
2023-02-11T14:56:26.673Z,100284.22
2023-02-11T14:58:54.889Z,100286.78
2023-02-11T15:01:35.130Z,100279.19
2023-02-11T15:04:04.352Z,100283.59
2023-02-11T15:06:33.210Z,100286.66
2023-02-11T15:09:04.986Z,100281.63
2023-02-11T15:11:39.764Z,100282.56
2023-02-11T15:14:22.847Z,100277.28
2023-02-11T15:16:53.381Z,100286.78
2023-02-11T15:19:38.376Z,100282.00
2023-02-11T15:22:08.109Z,100285.59
2023-02-11T15:24:35.631Z,100282.25
2023-02-11T15:27:16.154Z,100275.69
2023-02-11T15:29:51.127Z,100282.09
2023-02-11T15:32:25.950Z,100288.09
2023-02-11T15:34:54.224Z,100285.47
2023-02-11T15:37:26.772Z,100284.38
2023-02-11T15:39:54.669Z,100282.59
2023-02-11T15:42:35.823Z,100285.81
2023-02-11T15:45:09.245Z,100291.16
2023-02-11T15:47:36.343Z,100291.56
2023-02-11T15:50:03.034Z,100292.66
2023-02-11T15:52:30.344Z,100287.97
2023-02-11T15:55:01.626Z,100278.19
2023-02-11T15:57:28.755Z,100296.97
2023-02-11T15:59:56.315Z,100294.06
2023-02-11T16:02:34.213Z,100289.56
2023-02-11T16:05:05.241Z,100299.72
2023-02-11T16:07:52.202Z,100297.84
2023-02-11T16:10:29.289Z,100296.09
2023-02-11T16:13:19.950Z,100295.56
2023-02-11T16:15:49.261Z,100302.88
2023-02-11T16:18:28.459Z,100297.66
2023-02-11T16:21:02.185Z,100301.47
2023-02-11T16:23:42.193Z,100313.22
2023-02-11T16:26:29.429Z,100311.38
2023-02-11T16:29:27.228Z,100313.41
2023-02-11T16:32:08.905Z,100312.56
2023-02-11T16:34:36.382Z,100310.16
2023-02-11T16:37:05.406Z,100311.19
2023-02-11T16:39:31.926Z,100315.09
2023-02-11T16:41:58.770Z,100316.78
2023-02-11T16:44:25.446Z,100320.66
2023-02-11T16:46:53.340Z,100318.09
2023-02-11T16:49:26.175Z,100320.47
2023-02-11T16:51:56.928Z,100321.25
2023-02-11T16:54:24.156Z,100323.53
2023-02-11T16:56:50.697Z,100330.78
2023-02-11T16:59:17.303Z,100331.09
2023-02-11T17:01:44.890Z,100329.31
2023-02-11T17:04:25.255Z,100333.19
2023-02-11T17:06:51.777Z,100332.25
2023-02-11T17:09:20.960Z,100334.53
2023-02-11T17:11:47.856Z,100336.19
2023-02-11T17:14:14.428Z,100340.66
2023-02-11T17:16:41.222Z,100341.94
2023-02-11T17:19:07.834Z,100343.97
2023-02-11T17:21:34.379Z,100338.41
2023-02-11T17:24:00.877Z,100351.16
2023-02-11T17:26:27.342Z,100355.22
2023-02-11T17:28:53.798Z,100360.59
2023-02-11T17:31:20.335Z,100365.41
2023-02-11T17:33:48.305Z,100362.69
2023-02-11T17:36:14.840Z,100362.41
2023-02-11T17:38:41.327Z,100359.25
2023-02-11T17:41:07.886Z,100370.59
2023-02-11T17:43:34.481Z,100370.09
2023-02-11T17:46:01.054Z,100368.59
2023-02-11T17:48:27.575Z,100386.28
2023-02-11T17:50:54.116Z,100383.59
2023-02-11T17:53:20.675Z,100385.97
2023-02-11T17:55:47.214Z,100384.13
2023-02-11T17:58:13.667Z,100377.41
2023-02-11T18:00:40.274Z,100378.91
2023-02-11T18:03:06.872Z,100387.94
2023-02-11T18:05:35.162Z,100390.13
2023-02-11T18:08:02.917Z,100387.97
2023-02-11T18:10:29.617Z,100392.81
2023-02-11T18:12:56.226Z,100387.28
2023-02-11T18:15:23.346Z,100395.63
2023-02-11T18:17:49.810Z,100393.59
2023-02-11T18:20:16.497Z,100396.63
2023-02-11T18:22:44.226Z,100397.22
2023-02-11T18:25:14.020Z,100387.03
2023-02-11T18:27:40.661Z,100394.31
2023-02-11T18:30:08.466Z,100394.25
2023-02-11T18:32:34.922Z,100389.06
2023-02-11T18:35:01.396Z,100400.66
2023-02-11T18:37:27.941Z,100408.47
2023-02-11T18:39:54.464Z,100410.13
2023-02-11T18:42:20.985Z,100397.25
2023-02-11T18:44:47.484Z,100409.19
2023-02-11T18:47:14.022Z,100414.63
2023-02-11T18:49:40.489Z,100416.72
2023-02-11T18:52:06.988Z,100407.91
2023-02-11T18:54:33.457Z,100396.69
2023-02-11T18:56:59.989Z,100405.13
2023-02-11T18:59:26.649Z,100405.94
2023-02-11T19:01:53.254Z,100417.69
2023-02-11T19:04:20.118Z,100411.88
2023-02-11T19:06:49.447Z,100420.19
2023-02-11T19:09:19.280Z,100418.84
2023-02-11T19:11:54.015Z,100411.06
2023-02-11T19:14:31.651Z,100416.56
2023-02-11T19:17:00.275Z,100417.59
2023-02-11T19:19:29.723Z,100421.97
2023-02-11T19:21:57.258Z,100422.84
2023-02-11T19:24:24.692Z,100424.81
2023-02-11T19:26:53.467Z,100432.53
2023-02-11T19:29:20.021Z,100434.69
2023-02-11T19:31:46.900Z,100430.88
2023-02-11T19:34:15.347Z,100434.50
2023-02-11T19:36:42.097Z,100446.06
2023-02-11T19:39:10.046Z,100448.34
2023-02-11T19:41:36.715Z,100455.78
2023-02-11T19:44:04.890Z,100464.03
2023-02-11T19:46:34.608Z,100462.63
2023-02-11T19:49:01.964Z,100461.72
2023-02-11T19:51:29.545Z,100460.59
2023-02-11T19:53:58.005Z,100456.50
2023-02-11T19:56:30.621Z,100455.44
2023-02-11T19:58:57.366Z,100458.31
2023-02-11T20:01:25.422Z,100460.66
2023-02-11T20:03:54.019Z,100469.94
2023-02-11T20:06:26.204Z,100465.38
2023-02-11T20:08:58.595Z,100469.00
2023-02-11T20:11:27.949Z,100466.28
2023-02-11T20:13:55.078Z,100467.66
2023-02-11T20:16:36.811Z,100475.72
2023-02-11T20:19:14.896Z,100477.41
2023-02-11T20:21:41.436Z,100472.34
2023-02-11T20:24:07.956Z,100480.63
2023-02-11T20:26:34.923Z,100492.47
2023-02-11T20:29:04.981Z,100485.09
2023-02-11T20:31:32.333Z,100487.31
2023-02-11T20:34:00.060Z,100480.25
2023-02-11T20:36:32.613Z,100493.31
2023-02-11T20:39:00.220Z,100480.25
2023-02-11T20:41:30.822Z,100481.81
2023-02-11T20:43:59.533Z,100479.59
2023-02-11T20:46:28.430Z,100480.56
2023-02-11T20:48:56.382Z,100479.56
2023-02-11T20:51:28.542Z,100466.28
2023-02-11T20:53:55.375Z,100463.63
2023-02-11T20:56:24.459Z,100457.81
2023-02-11T20:58:51.898Z,100464.00
2023-02-11T21:01:24.366Z,100460.69
2023-02-11T21:04:15.511Z,100457.63
2023-02-11T21:06:44.551Z,100468.94
2023-02-11T21:09:13.977Z,100470.22
2023-02-11T21:11:40.854Z,100464.19
2023-02-11T21:14:07.697Z,100467.34
2023-02-11T21:16:34.260Z,100468.41
2023-02-11T21:19:01.197Z,100455.28
2023-02-11T21:21:27.937Z,100465.66
2023-02-11T21:23:56.040Z,100463.00
2023-02-11T21:26:22.959Z,100456.44
2023-02-11T21:28:50.045Z,100454.19
2023-02-11T21:31:21.540Z,100451.53
2023-02-11T21:33:49.593Z,100446.66
2023-02-11T21:36:16.062Z,100456.72
2023-02-11T21:38:43.021Z,100451.28
2023-02-11T21:41:09.654Z,100453.66
2023-02-11T21:43:36.165Z,100458.28
2023-02-11T21:46:08.680Z,100467.31
2023-02-11T21:48:35.238Z,100458.25
2023-02-11T21:51:06.390Z,100471.50
2023-02-11T21:53:33.037Z,100475.47
2023-02-11T21:56:15.502Z,100465.22
2023-02-11T21:58:42.452Z,100457.28
2023-02-11T22:01:17.625Z,100463.97
2023-02-11T22:03:45.306Z,100462.31
2023-02-11T22:06:15.443Z,100455.06
2023-02-11T22:08:42.161Z,100472.06
2023-02-11T22:11:12.211Z,100463.53
2023-02-11T22:13:39.428Z,100457.16
2023-02-11T22:16:09.563Z,100462.84
2023-02-11T22:18:36.616Z,100465.94
2023-02-11T22:21:23.455Z,100463.69
2023-02-11T22:23:51.116Z,100471.34
2023-02-11T22:26:20.382Z,100462.00
2023-02-11T22:28:47.263Z,100467.59
2023-02-11T22:31:24.026Z,100475.09
2023-02-11T22:33:50.845Z,100477.75
2023-02-11T22:36:20.823Z,100480.22
2023-02-11T22:38:48.059Z,100483.44
2023-02-11T22:41:15.051Z,100485.66
2023-02-11T22:43:43.219Z,100488.41
2023-02-11T22:46:12.292Z,100487.44
2023-02-11T22:48:38.786Z,100481.28
2023-02-11T22:51:07.734Z,100482.50
2023-02-11T22:53:34.765Z,100485.50
2023-02-11T22:56:07.171Z,100488.16
2023-02-11T22:58:34.930Z,100484.50
2023-02-11T23:01:01.828Z,100492.56
2023-02-11T23:03:29.277Z,100498.97
2023-02-11T23:05:58.399Z,100490.44
2023-02-11T23:08:25.874Z,100499.66
2023-02-11T23:10:52.684Z,100501.03
2023-02-11T23:13:19.173Z,100503.16
2023-02-11T23:15:47.648Z,100506.69
2023-02-11T23:18:14.360Z,100503.25
2023-02-11T23:20:43.109Z,100502.19
2023-02-11T23:23:09.665Z,100504.66
2023-02-11T23:25:42.755Z,100501.47
2023-02-11T23:28:09.790Z,100512.34
2023-02-11T23:30:36.344Z,100510.47
2023-02-11T23:33:02.859Z,100517.19
2023-02-11T23:35:29.427Z,100502.97
2023-02-11T23:37:55.879Z,100508.03
2023-02-11T23:40:22.471Z,100516.66
2023-02-11T23:42:49.042Z,100512.16
2023-02-11T23:45:15.695Z,100511.09
2023-02-11T23:47:42.228Z,100516.25
2023-02-11T23:50:09.755Z,100512.94
2023-02-11T23:52:36.596Z,100508.09
2023-02-11T23:55:03.071Z,100510.81
2023-02-11T23:57:32.564Z,100506.78
2023-02-11T23:59:59.117Z,100514.16
